createdAt,value
2022-10-09T00:02:31.513Z,2.55
2022-10-09T00:05:03.595Z,2.33
2022-10-09T00:07:36.183Z,2.30
2022-10-09T00:10:12.199Z,2.75
2022-10-09T00:12:43.633Z,2.70
2022-10-09T00:15:16.211Z,2.63
2022-10-09T00:17:48.221Z,1.73
2022-10-09T00:20:20.707Z,1.85
2022-10-09T00:22:52.821Z,2.28
2022-10-09T00:25:27.755Z,1.77
2022-10-09T00:28:01.883Z,1.83
2022-10-09T00:30:33.884Z,1.60
2022-10-09T00:33:05.908Z,1.55
2022-10-09T00:35:37.487Z,2.05
2022-10-09T00:38:11.387Z,1.50
2022-10-09T00:40:46.689Z,1.52
2022-10-09T00:43:20.989Z,1.70
2022-10-09T00:45:56.708Z,1.67
2022-10-09T00:48:29.107Z,2.17
2022-10-09T00:51:05.366Z,1.70
2022-10-09T00:53:37.045Z,1.95
2022-10-09T00:56:12.700Z,1.33
2022-10-09T00:58:44.463Z,1.48
2022-10-09T01:01:17.069Z,1.30
2022-10-09T01:03:49.722Z,1.27
2022-10-09T01:06:26.449Z,1.35
2022-10-09T01:09:05.353Z,1.40
2022-10-09T01:11:51.112Z,1.42
2022-10-09T01:14:30.123Z,1.83
2022-10-09T01:17:09.477Z,0.98
2022-10-09T01:19:58.299Z,1.35
2022-10-09T01:22:47.167Z,1.13
2022-10-09T01:25:24.236Z,1.48
2022-10-09T01:28:00.290Z,1.70
2022-10-09T01:30:33.333Z,1.48
2022-10-09T01:33:06.470Z,1.33
2022-10-09T01:35:39.260Z,1.95
2022-10-09T01:38:11.446Z,2.22
2022-10-09T01:40:43.893Z,1.15
2022-10-09T01:43:20.473Z,1.48
2022-10-09T01:45:53.355Z,2.35
2022-10-09T01:48:28.437Z,2.30
2022-10-09T01:51:05.129Z,2.47
2022-10-09T01:53:38.424Z,2.33
2022-10-09T01:56:16.697Z,1.77
2022-10-09T01:58:58.276Z,1.75
2022-10-09T02:01:34.227Z,1.60
2022-10-09T02:04:09.933Z,1.30
2022-10-09T02:06:43.473Z,1.23
2022-10-09T02:09:19.382Z,1.48
2022-10-09T02:11:56.847Z,1.27
2022-10-09T02:14:31.442Z,1.10
2022-10-09T02:17:09.206Z,1.48
2022-10-09T02:19:47.202Z,1.65
2022-10-09T02:22:23.027Z,1.65
2022-10-09T02:24:56.536Z,1.50
2022-10-09T02:27:31.304Z,1.23
2022-10-09T02:30:07.369Z,1.60
2022-10-09T02:32:39.371Z,2.40
2022-10-09T02:35:13.383Z,2.88
2022-10-09T02:37:45.298Z,2.28
2022-10-09T02:40:17.396Z,2.03
2022-10-09T02:42:50.100Z,1.65
2022-10-09T02:45:25.176Z,1.75
2022-10-09T02:47:57.376Z,1.60
2022-10-09T02:50:30.366Z,1.27
2022-10-09T02:53:02.198Z,1.00
2022-10-09T02:55:34.179Z,1.67
2022-10-09T02:58:07.530Z,1.30
2022-10-09T03:00:42.554Z,1.40
2022-10-09T03:03:14.092Z,1.80
2022-10-09T03:05:46.475Z,1.25
2022-10-09T03:08:23.117Z,1.40
2022-10-09T03:10:55.360Z,1.50
2022-10-09T03:13:28.041Z,1.48
2022-10-09T03:16:06.931Z,2.05
2022-10-09T03:18:41.714Z,1.98
2022-10-09T03:21:16.243Z,1.58
2022-10-09T03:23:48.242Z,1.83
2022-10-09T03:26:21.678Z,1.58
2022-10-09T03:28:55.369Z,1.30
2022-10-09T03:31:51.837Z,1.20
2022-10-09T03:34:23.086Z,1.05
2022-10-09T03:36:54.713Z,1.45
2022-10-09T03:39:26.973Z,1.27
2022-10-09T03:41:59.528Z,1.20
2022-10-09T03:44:31.288Z,1.20
2022-10-09T03:47:05.616Z,1.38
2022-10-09T03:49:37.620Z,1.33
2022-10-09T03:52:10.396Z,1.25
2022-10-09T03:54:42.024Z,1.58
2022-10-09T03:57:14.464Z,1.10
2022-10-09T03:59:46.218Z,1.40
2022-10-09T04:02:20.835Z,1.30
2022-10-09T04:04:53.746Z,2.25
2022-10-09T04:07:25.437Z,2.60
2022-10-09T04:09:57.974Z,1.90
2022-10-09T04:12:30.374Z,2.10
2022-10-09T04:15:02.228Z,2.20
2022-10-09T04:17:36.869Z,1.67
2022-10-09T04:20:10.373Z,1.48
2022-10-09T04:22:42.009Z,1.75
2022-10-09T04:25:14.542Z,1.67
2022-10-09T04:27:48.567Z,1.70
2022-10-09T04:30:20.450Z,1.38
2022-10-09T04:32:55.647Z,1.40
2022-10-09T04:35:28.382Z,1.60
2022-10-09T04:37:59.869Z,1.65
2022-10-09T04:40:31.953Z,1.80
2022-10-09T04:43:03.833Z,1.80
2022-10-09T04:45:35.584Z,2.30
2022-10-09T04:48:11.396Z,1.55
2022-10-09T04:50:43.440Z,1.40
2022-10-09T04:53:16.050Z,1.90
2022-10-09T04:55:49.298Z,1.73
2022-10-09T04:58:22.596Z,1.63
2022-10-09T05:00:55.237Z,1.55
2022-10-09T05:03:29.933Z,2.47
2022-10-09T05:06:05.409Z,2.67
2022-10-09T05:08:38.060Z,1.42
2022-10-09T05:11:13.808Z,1.67
2022-10-09T05:13:48.289Z,1.63
2022-10-09T05:16:21.818Z,1.42
2022-10-09T05:18:57.781Z,1.77
2022-10-09T05:21:29.591Z,1.73
2022-10-09T05:24:00.999Z,1.67
2022-10-09T05:26:32.340Z,1.38
2022-10-09T05:29:03.423Z,1.42
2022-10-09T05:31:35.499Z,1.90
2022-10-09T05:34:09.294Z,1.25
2022-10-09T05:36:40.573Z,1.40
2022-10-09T05:39:11.634Z,1.30
2022-10-09T05:41:43.034Z,1.65
2022-10-09T05:44:14.910Z,1.73
2022-10-09T05:46:45.761Z,1.38
2022-10-09T05:49:19.565Z,2.03
2022-10-09T05:51:50.518Z,1.35
2022-10-09T05:54:22.190Z,2.00
2022-10-09T05:56:53.579Z,1.77
2022-10-09T05:59:24.541Z,1.58
2022-10-09T06:01:56.123Z,1.50
2022-10-09T06:04:30.112Z,1.40
2022-10-09T06:07:01.446Z,1.20
2022-10-09T06:09:32.973Z,1.67
2022-10-09T06:12:04.626Z,1.35
2022-10-09T06:14:36.840Z,1.20
2022-10-09T06:17:08.416Z,1.92
2022-10-09T06:19:42.018Z,1.38
2022-10-09T06:22:13.161Z,1.48
2022-10-09T06:24:44.269Z,1.48
2022-10-09T06:27:15.484Z,1.77
2022-10-09T06:29:46.828Z,1.60
2022-10-09T06:32:17.964Z,1.52
2022-10-09T06:34:52.313Z,1.80
2022-10-09T06:37:23.223Z,1.80
2022-10-09T06:39:54.092Z,1.38
2022-10-09T06:42:25.063Z,1.50
2022-10-09T06:45:01.175Z,1.50
2022-10-09T06:47:32.252Z,1.65
2022-10-09T06:50:06.102Z,2.35
2022-10-09T06:52:37.036Z,1.73
2022-10-09T06:55:09.075Z,2.10
2022-10-09T06:57:40.296Z,1.80
2022-10-09T07:00:12.894Z,1.50
2022-10-09T07:02:44.275Z,1.67
2022-10-09T07:05:18.814Z,1.55
2022-10-09T07:07:49.675Z,1.50
2022-10-09T07:10:25.112Z,1.63
2022-10-09T07:12:56.311Z,1.70
2022-10-09T07:15:30.333Z,1.85
2022-10-09T07:18:01.571Z,1.52
2022-10-09T07:20:38.992Z,1.80
2022-10-09T07:23:09.834Z,1.48
2022-10-09T07:25:41.754Z,1.63
2022-10-09T07:28:12.680Z,1.85
2022-10-09T07:30:44.549Z,1.73
2022-10-09T07:33:15.737Z,2.30
2022-10-09T07:35:56.606Z,1.77
2022-10-09T07:38:28.635Z,1.65
2022-10-09T07:41:04.455Z,1.40
2022-10-09T07:43:35.657Z,1.70
2022-10-09T07:46:08.585Z,1.77
2022-10-09T07:48:39.674Z,1.45
2022-10-09T07:51:16.973Z,1.50
2022-10-09T07:53:48.257Z,1.70
2022-10-09T07:56:20.550Z,1.50
2022-10-09T07:58:53.173Z,1.50
2022-10-09T08:01:25.626Z,1.30
2022-10-09T08:03:57.429Z,1.60
2022-10-09T08:06:31.979Z,1.77
2022-10-09T08:09:05.421Z,1.92
2022-10-09T08:11:36.464Z,1.55
2022-10-09T08:14:07.485Z,1.30
2022-10-09T08:16:38.302Z,1.25
2022-10-09T08:19:09.220Z,1.40
2022-10-09T08:21:42.734Z,1.13
2022-10-09T08:24:15.057Z,1.08
2022-10-09T08:26:45.990Z,1.27
2022-10-09T08:29:18.833Z,1.70
2022-10-09T08:31:49.896Z,1.60
2022-10-09T08:34:21.558Z,1.30
2022-10-09T08:36:55.798Z,1.35
2022-10-09T08:39:31.110Z,1.20
2022-10-09T08:42:04.534Z,2.03
2022-10-09T08:44:41.869Z,1.75
2022-10-09T08:47:20.611Z,1.50
2022-10-09T08:49:58.779Z,1.85
2022-10-09T08:52:40.704Z,1.80
2022-10-09T08:55:23.310Z,1.40
2022-10-09T08:57:57.178Z,1.40
2022-10-09T09:00:31.337Z,1.45
2022-10-09T09:03:32.047Z,1.70
2022-10-09T09:06:09.295Z,1.40
2022-10-09T09:08:51.005Z,1.15
2022-10-09T09:11:31.673Z,1.40
2022-10-09T09:14:14.554Z,1.10
2022-10-09T09:16:53.118Z,1.33
2022-10-09T09:19:39.866Z,1.30
2022-10-09T09:22:15.659Z,1.40
2022-10-09T09:24:54.516Z,1.65
2022-10-09T09:27:30.644Z,1.70
2022-10-09T09:30:07.225Z,1.60
2022-10-09T09:32:38.533Z,2.03
2022-10-09T09:35:19.212Z,1.48
2022-10-09T09:37:50.418Z,1.10
2022-10-09T09:40:46.623Z,1.33
2022-10-09T09:43:22.054Z,1.40
2022-10-09T09:45:56.790Z,2.08
2022-10-09T09:48:38.180Z,1.77
2022-10-09T09:51:28.132Z,1.38
2022-10-09T09:54:04.325Z,1.60
2022-10-09T09:59:37.214Z,1.85
2022-10-09T10:02:16.156Z,1.83
2022-10-09T10:04:56.952Z,1.80
2022-10-09T10:07:32.730Z,1.83
2022-10-09T10:10:09.329Z,1.98
2022-10-09T10:12:49.130Z,1.70
2022-10-09T10:15:23.684Z,1.40
2022-10-09T10:18:01.707Z,2.08
2022-10-09T10:20:35.352Z,1.98
2022-10-09T10:23:07.105Z,1.83
2022-10-09T10:25:38.713Z,1.48
2022-10-09T10:28:21.944Z,1.70
2022-10-09T10:30:54.595Z,1.70
2022-10-09T10:33:30.307Z,1.35
2022-10-09T10:36:02.266Z,1.30
2022-10-09T10:38:38.654Z,1.48
2022-10-09T10:41:18.052Z,1.23
2022-10-09T10:43:54.423Z,1.67
2022-10-09T10:46:29.354Z,1.38
2022-10-09T10:49:03.613Z,1.30
2022-10-09T10:51:54.122Z,1.58
2022-10-09T10:54:39.296Z,1.35
2022-10-09T10:57:18.116Z,1.45
2022-10-09T11:00:04.316Z,1.58
2022-10-09T11:03:05.383Z,1.33
2022-10-09T11:05:50.541Z,1.25
2022-10-09T11:08:43.688Z,1.42
2022-10-09T11:11:22.257Z,1.55
2022-10-09T11:14:06.946Z,1.05
2022-10-09T11:16:52.794Z,1.23
2022-10-09T11:19:50.965Z,1.30
2022-10-09T11:22:43.079Z,1.48
2022-10-09T11:25:33.439Z,1.10
2022-10-09T11:28:08.034Z,1.30
2022-10-09T11:30:46.059Z,1.38
2022-10-09T11:33:30.997Z,0.90
2022-10-09T11:36:05.569Z,1.35
2022-10-09T11:38:40.828Z,1.60
2022-10-09T11:41:12.571Z,1.42
2022-10-09T11:44:04.648Z,1.42
2022-10-09T11:46:45.309Z,1.55
2022-10-09T11:49:26.402Z,1.30
2022-10-09T11:52:03.234Z,1.30
2022-10-09T11:57:12.953Z,1.75
2022-10-09T11:59:46.563Z,1.50
2022-10-09T12:02:29.278Z,1.10
2022-10-09T12:05:03.755Z,1.40
2022-10-09T12:10:12.789Z,0.90
2022-10-09T12:12:45.738Z,1.10
2022-10-09T12:15:28.850Z,1.25
2022-10-09T12:18:00.023Z,1.02
2022-10-09T12:20:35.043Z,1.13
2022-10-09T12:23:28.444Z,1.15
2022-10-09T12:26:01.121Z,1.08
2022-10-09T12:28:41.719Z,1.10
2022-10-09T12:31:24.708Z,1.20
2022-10-09T12:34:00.593Z,1.40
2022-10-09T12:36:35.217Z,1.48
2022-10-09T12:39:23.057Z,1.77
2022-10-09T12:41:59.881Z,1.83
2022-10-09T12:44:34.768Z,1.27
2022-10-09T12:47:09.614Z,1.30
2022-10-09T12:49:40.775Z,1.20
2022-10-09T12:52:19.994Z,1.00
2022-10-09T12:54:51.113Z,1.90
2022-10-09T12:57:24.097Z,1.17
2022-10-09T12:59:59.819Z,1.52
2022-10-09T13:02:32.278Z,1.60
2022-10-09T13:05:04.950Z,1.35
2022-10-09T13:07:39.084Z,1.55
2022-10-09T13:10:19.652Z,1.05
2022-10-09T13:12:56.274Z,1.10
2022-10-09T13:15:34.331Z,1.00
2022-10-09T13:18:16.143Z,1.50
2022-10-09T13:20:47.383Z,1.48
2022-10-09T13:23:33.586Z,1.25
2022-10-09T13:26:06.647Z,0.95
2022-10-09T13:28:38.056Z,1.10
2022-10-09T13:31:11.274Z,1.23
2022-10-09T13:33:42.518Z,0.77
2022-10-09T13:36:15.402Z,1.20
2022-10-09T13:38:50.526Z,2.30
2022-10-09T13:41:24.151Z,1.00
2022-10-09T13:43:56.792Z,0.95
2022-10-09T13:46:28.090Z,1.30
2022-10-09T13:48:59.493Z,0.90
2022-10-09T13:51:32.280Z,1.38
2022-10-09T13:54:06.065Z,1.17
2022-10-09T13:56:37.165Z,1.67
2022-10-09T13:59:08.041Z,1.60
2022-10-09T14:01:39.273Z,1.00
2022-10-09T14:04:10.362Z,1.60
2022-10-09T14:06:41.503Z,2.70
2022-10-09T14:09:15.001Z,1.05
2022-10-09T14:11:46.188Z,1.27
2022-10-09T14:14:17.110Z,1.10
2022-10-09T14:16:47.887Z,1.17
2022-10-09T14:19:18.985Z,1.15
2022-10-09T14:21:50.631Z,1.45
2022-10-09T14:24:24.653Z,1.63
2022-10-09T14:26:55.519Z,1.40
2022-10-09T14:29:26.294Z,1.30
2022-10-09T14:31:57.086Z,1.00
2022-10-09T14:34:27.868Z,1.20
2022-10-09T14:36:58.689Z,1.70
2022-10-09T14:39:32.729Z,1.67
2022-10-09T14:42:03.936Z,1.08
2022-10-09T14:44:35.345Z,1.20
2022-10-09T14:47:06.488Z,1.23
2022-10-09T14:49:37.869Z,1.48
2022-10-09T14:52:08.729Z,1.40
2022-10-09T14:54:42.398Z,1.60
2022-10-09T14:57:13.692Z,1.40
2022-10-09T14:59:44.448Z,1.48
2022-10-09T15:02:17.884Z,2.05
2022-10-09T15:04:48.650Z,1.50
2022-10-09T15:07:19.461Z,1.50
2022-10-09T15:09:55.040Z,1.60
2022-10-09T15:12:25.847Z,1.10
2022-10-09T15:14:57.179Z,3.63
2022-10-09T15:17:28.312Z,3.50
2022-10-09T15:19:59.461Z,1.90
2022-10-09T15:22:30.334Z,2.15
2022-10-09T15:25:03.872Z,2.83
2022-10-09T15:27:34.968Z,2.30
2022-10-09T15:30:06.698Z,2.83
2022-10-09T15:32:37.418Z,1.75
2022-10-09T15:35:09.633Z,1.92
2022-10-09T15:37:41.012Z,1.83
2022-10-09T15:40:17.847Z,2.10
2022-10-09T15:42:50.138Z,1.70
2022-10-09T15:45:21.678Z,2.55
2022-10-09T15:47:55.391Z,2.33
2022-10-09T15:50:27.134Z,3.75
2022-10-09T15:53:00.872Z,1.95
2022-10-09T15:55:44.395Z,2.42
2022-10-09T15:58:16.482Z,1.90
2022-10-09T16:00:50.465Z,2.42
2022-10-09T16:03:22.170Z,1.55
2022-10-09T16:05:55.370Z,1.25
2022-10-09T16:08:26.584Z,2.10
2022-10-09T16:11:00.688Z,1.70
2022-10-09T16:13:31.600Z,1.67
2022-10-09T16:16:02.570Z,1.40
2022-10-09T16:18:33.511Z,2.38
2022-10-09T16:21:08.403Z,1.80
2022-10-09T16:23:40.453Z,1.67
2022-10-09T16:26:15.813Z,1.50
2022-10-09T16:28:47.502Z,1.60
2022-10-09T16:31:23.204Z,1.60
2022-10-09T16:33:54.496Z,2.13
2022-10-09T16:36:25.533Z,1.50
2022-10-09T16:38:56.721Z,1.13
2022-10-09T16:41:30.432Z,1.15
2022-10-09T16:44:03.072Z,1.17
2022-10-09T16:46:36.121Z,1.13
2022-10-09T16:49:07.582Z,1.10
2022-10-09T16:51:39.567Z,1.10
2022-10-09T16:54:10.762Z,1.30
2022-10-09T16:56:44.803Z,1.17
2022-10-09T16:59:16.735Z,0.98
2022-10-09T17:01:49.798Z,1.10
2022-10-09T17:04:21.037Z,1.40
2022-10-09T17:06:53.001Z,1.30
2022-10-09T17:09:24.098Z,1.50
2022-10-09T17:11:58.190Z,1.70
2022-10-09T17:14:29.342Z,2.00
2022-10-09T17:17:00.719Z,1.80
2022-10-09T17:19:33.224Z,2.20
2022-10-09T17:22:05.360Z,2.05
2022-10-09T17:24:36.434Z,2.20
2022-10-09T17:27:10.429Z,2.70
2022-10-09T17:29:41.664Z,1.95
2022-10-09T17:32:12.962Z,2.17
2022-10-09T17:34:46.173Z,2.13
2022-10-09T17:37:17.538Z,2.47
2022-10-09T17:39:52.278Z,2.75
2022-10-09T17:42:26.904Z,2.97
2022-10-09T17:44:58.465Z,3.35
2022-10-09T17:47:29.575Z,2.75
2022-10-09T17:50:01.109Z,3.05
2022-10-09T17:52:32.339Z,2.83
2022-10-09T17:55:03.558Z,2.88
2022-10-09T17:57:38.082Z,2.83
2022-10-09T18:00:13.256Z,3.08
2022-10-09T18:02:44.619Z,2.53
2022-10-09T18:05:18.709Z,3.20
2022-10-09T18:07:50.278Z,2.70
2022-10-09T18:10:24.004Z,2.92
2022-10-09T18:12:57.904Z,2.63
2022-10-09T18:15:29.605Z,2.35
2022-10-09T18:18:01.645Z,2.65
2022-10-09T18:20:33.532Z,2.75
2022-10-09T18:23:05.248Z,2.30
2022-10-09T18:25:38.395Z,2.60
2022-10-09T18:28:13.628Z,3.53
2022-10-09T18:30:46.896Z,4.30
2022-10-09T18:33:19.084Z,7.68
2022-10-09T18:35:51.129Z,6.68
2022-10-09T18:38:22.984Z,6.95
2022-10-09T18:40:54.302Z,8.30
2022-10-09T18:43:29.661Z,15.88
2022-10-09T18:46:02.014Z,13.88
2022-10-09T18:48:35.205Z,7.30
2022-10-09T18:51:07.361Z,10.60
2022-10-09T18:53:40.195Z,11.63
2022-10-09T18:56:11.999Z,11.15
2022-10-09T18:58:48.774Z,9.63
2022-10-09T19:01:20.718Z,9.90
2022-10-09T19:03:51.873Z,9.18
2022-10-09T19:06:23.926Z,9.73
2022-10-09T19:08:58.271Z,7.75
2022-10-09T19:11:29.609Z,11.73
2022-10-09T19:14:04.332Z,11.18
2022-10-09T19:16:37.110Z,5.00
2022-10-09T19:19:08.393Z,4.35
2022-10-09T19:21:44.176Z,4.03
2022-10-09T19:24:15.889Z,3.78
2022-10-09T19:26:47.312Z,4.05
2022-10-09T19:29:21.327Z,5.22
2022-10-09T19:31:52.469Z,5.88
2022-10-09T19:34:23.518Z,8.80
2022-10-09T19:36:54.779Z,8.45
2022-10-09T19:39:26.521Z,8.38
2022-10-09T19:41:58.385Z,5.55
2022-10-09T19:44:32.812Z,5.50
2022-10-09T19:47:07.305Z,5.72
2022-10-09T19:49:39.932Z,5.22
2022-10-09T19:52:11.627Z,5.07
2022-10-09T19:54:43.288Z,4.20
2022-10-09T19:57:15.977Z,4.05
2022-10-09T19:59:54.612Z,3.38
2022-10-09T20:02:27.341Z,3.47
2022-10-09T20:05:01.534Z,3.13
2022-10-09T20:07:33.062Z,3.70
2022-10-09T20:10:05.875Z,3.60
2022-10-09T20:12:41.464Z,3.85
2022-10-09T20:15:15.786Z,3.78
2022-10-09T20:17:47.030Z,3.95
2022-10-09T20:20:19.208Z,3.40
2022-10-09T20:22:50.586Z,3.58
2022-10-09T20:25:22.638Z,3.22
2022-10-09T20:27:54.286Z,3.10
2022-10-09T20:30:28.104Z,3.17
2022-10-09T20:32:59.766Z,3.40
2022-10-09T20:35:31.490Z,2.97
2022-10-09T20:38:03.426Z,3.60
2022-10-09T20:40:36.565Z,3.40
2022-10-09T20:43:08.564Z,3.60
2022-10-09T20:45:45.781Z,3.10
2022-10-09T20:48:16.834Z,3.40
2022-10-09T20:50:47.787Z,3.40
2022-10-09T20:53:19.016Z,4.00
2022-10-09T20:55:50.035Z,3.47
2022-10-09T20:58:21.088Z,3.90
2022-10-09T21:00:54.734Z,3.40
2022-10-09T21:03:26.085Z,3.13
2022-10-09T21:05:57.293Z,3.28
2022-10-09T21:08:28.940Z,3.55
2022-10-09T21:11:01.074Z,3.80
2022-10-09T21:13:32.133Z,3.20
2022-10-09T21:16:09.227Z,3.20
2022-10-09T21:18:41.356Z,3.03
2022-10-09T21:21:14.517Z,4.22
2022-10-09T21:23:46.334Z,4.75
2022-10-09T21:26:19.570Z,5.90
2022-10-09T21:28:53.338Z,4.75
2022-10-09T21:31:32.520Z,5.30
2022-10-09T21:34:04.357Z,4.65
2022-10-09T21:36:51.066Z,4.15
2022-10-09T21:39:32.053Z,4.43
2022-10-09T21:42:03.069Z,4.10
2022-10-09T21:44:34.606Z,3.92
2022-10-09T21:47:08.525Z,3.50
2022-10-09T21:49:39.379Z,3.60
2022-10-09T21:52:10.531Z,3.88
2022-10-09T21:54:41.464Z,3.58
2022-10-09T21:57:12.709Z,3.40
2022-10-09T21:59:43.639Z,3.20
2022-10-09T22:02:17.266Z,2.60
2022-10-09T22:04:48.549Z,3.70
2022-10-09T22:07:19.773Z,2.85
2022-10-09T22:09:50.632Z,3.15
2022-10-09T22:12:23.260Z,2.97
2022-10-09T22:14:54.503Z,3.47
2022-10-09T22:17:28.068Z,2.95
2022-10-09T22:19:59.291Z,3.13
2022-10-09T22:22:30.610Z,3.17
2022-10-09T22:25:02.130Z,2.90
2022-10-09T22:27:33.435Z,3.58
2022-10-09T22:30:04.768Z,4.05
2022-10-09T22:32:39.964Z,2.85
2022-10-09T22:35:11.700Z,2.70
2022-10-09T22:37:42.991Z,2.88
2022-10-09T22:40:14.618Z,2.95
2022-10-09T22:42:46.085Z,3.13
2022-10-09T22:45:17.755Z,2.42
2022-10-09T22:47:52.989Z,3.03
2022-10-09T22:50:23.935Z,2.80
2022-10-09T22:52:54.787Z,2.58
2022-10-09T22:55:26.699Z,2.60
2022-10-09T22:57:58.035Z,3.28
2022-10-09T23:00:29.552Z,2.92
2022-10-09T23:03:03.088Z,2.72
2022-10-09T23:05:33.995Z,2.88
2022-10-09T23:08:05.276Z,3.00
2022-10-09T23:10:39.902Z,2.95
2022-10-09T23:13:10.776Z,3.78
2022-10-09T23:15:42.032Z,2.85
2022-10-09T23:18:15.769Z,2.40
2022-10-09T23:20:46.886Z,2.80
2022-10-09T23:23:17.997Z,3.00
2022-10-09T23:25:49.007Z,2.80
2022-10-09T23:28:20.285Z,3.05
2022-10-09T23:30:52.283Z,2.90
2022-10-09T23:33:26.075Z,2.47
2022-10-09T23:35:57.054Z,3.42
2022-10-09T23:38:28.625Z,2.90
2022-10-09T23:41:01.107Z,2.90
2022-10-09T23:43:33.890Z,2.80
2022-10-09T23:46:07.483Z,2.90
2022-10-09T23:48:41.344Z,2.78
2022-10-09T23:51:13.139Z,2.70
2022-10-09T23:53:44.938Z,3.10
2022-10-09T23:56:21.505Z,3.60
2022-10-09T23:58:53.184Z,2.95
